sensor_id;sensor_type;location;lat;lon;timestamp;temperature;humidity
25906;DHT22;13713;52.552;13.204;2023-03-20T00:02:17;14.60;66.70
25906;DHT22;13713;52.552;13.204;2023-03-20T00:04:43;14.60;66.70
25906;DHT22;13713;52.552;13.204;2023-03-20T00:07:09;14.60;66.70
25906;DHT22;13713;52.552;13.204;2023-03-20T00:09:37;14.60;66.70
25906;DHT22;13713;52.552;13.204;2023-03-20T00:12:03;14.60;66.70
25906;DHT22;13713;52.552;13.204;2023-03-20T00:14:30;14.60;66.70
25906;DHT22;13713;52.552;13.204;2023-03-20T00:16:56;14.60;66.70
25906;DHT22;13713;52.552;13.204;2023-03-20T00:19:24;14.60;66.70
25906;DHT22;13713;52.552;13.204;2023-03-20T00:21:51;14.60;66.70
25906;DHT22;13713;52.552;13.204;2023-03-20T00:24:17;14.60;66.80
25906;DHT22;13713;52.552;13.204;2023-03-20T00:26:44;14.60;66.80
25906;DHT22;13713;52.552;13.204;2023-03-20T00:29:26;14.60;66.80
25906;DHT22;13713;52.552;13.204;2023-03-20T00:31:54;14.60;66.80
25906;DHT22;13713;52.552;13.204;2023-03-20T00:34:22;14.60;66.80
25906;DHT22;13713;52.552;13.204;2023-03-20T00:36:48;14.60;66.80
25906;DHT22;13713;52.552;13.204;2023-03-20T00:39:14;14.60;66.90
25906;DHT22;13713;52.552;13.204;2023-03-20T00:41:47;14.60;66.90
25906;DHT22;13713;52.552;13.204;2023-03-20T00:47:02;14.60;66.90
25906;DHT22;13713;52.552;13.204;2023-03-20T00:49:33;14.60;66.90
25906;DHT22;13713;52.552;13.204;2023-03-20T00:52:00;14.60;66.90
25906;DHT22;13713;52.552;13.204;2023-03-20T00:54:27;14.70;67.00
25906;DHT22;13713;52.552;13.204;2023-03-20T00:57:08;14.70;67.00
25906;DHT22;13713;52.552;13.204;2023-03-20T00:59:40;14.60;66.90
25906;DHT22;13713;52.552;13.204;2023-03-20T01:02:11;14.60;67.00
25906;DHT22;13713;52.552;13.204;2023-03-20T01:04:40;14.60;67.00
25906;DHT22;13713;52.552;13.204;2023-03-20T01:07:11;14.60;67.00
25906;DHT22;13713;52.552;13.204;2023-03-20T01:09:37;14.60;66.90
25906;DHT22;13713;52.552;13.204;2023-03-20T01:12:03;14.60;67.00
25906;DHT22;13713;52.552;13.204;2023-03-20T01:14:29;14.60;67.00
25906;DHT22;13713;52.552;13.204;2023-03-20T01:16:55;14.60;67.00
25906;DHT22;13713;52.552;13.204;2023-03-20T01:19:21;14.70;67.00
25906;DHT22;13713;52.552;13.204;2023-03-20T01:21:46;14.60;67.00
25906;DHT22;13713;52.552;13.204;2023-03-20T01:24:12;14.60;67.00
25906;DHT22;13713;52.552;13.204;2023-03-20T01:26:42;14.60;67.00
25906;DHT22;13713;52.552;13.204;2023-03-20T01:29:24;14.60;67.80
25906;DHT22;13713;52.552;13.204;2023-03-20T01:31:52;14.60;67.00
25906;DHT22;13713;52.552;13.204;2023-03-20T01:34:19;14.60;67.00
25906;DHT22;13713;52.552;13.204;2023-03-20T01:36:56;14.60;67.00
25906;DHT22;13713;52.552;13.204;2023-03-20T01:39:34;14.50;67.00
25906;DHT22;13713;52.552;13.204;2023-03-20T01:42:01;14.60;67.00
25906;DHT22;13713;52.552;13.204;2023-03-20T01:44:31;14.60;67.00
25906;DHT22;13713;52.552;13.204;2023-03-20T01:46:59;14.60;67.00
25906;DHT22;13713;52.552;13.204;2023-03-20T01:51:55;14.60;67.00
25906;DHT22;13713;52.552;13.204;2023-03-20T01:54:30;14.60;67.00
25906;DHT22;13713;52.552;13.204;2023-03-20T01:57:25;14.60;67.00
25906;DHT22;13713;52.552;13.204;2023-03-20T02:00:03;14.70;67.10
25906;DHT22;13713;52.552;13.204;2023-03-20T02:02:42;14.60;67.00
25906;DHT22;13713;52.552;13.204;2023-03-20T02:05:10;14.60;67.00
25906;DHT22;13713;52.552;13.204;2023-03-20T02:07:38;14.60;67.10
25906;DHT22;13713;52.552;13.204;2023-03-20T02:10:12;14.60;67.10
25906;DHT22;13713;52.552;13.204;2023-03-20T02:13:14;14.60;67.90
25906;DHT22;13713;52.552;13.204;2023-03-20T02:18:36;14.60;67.10
25906;DHT22;13713;52.552;13.204;2023-03-20T02:29:42;14.60;67.10
25906;DHT22;13713;52.552;13.204;2023-03-20T02:32:43;14.60;67.10
25906;DHT22;13713;52.552;13.204;2023-03-20T02:35:46;14.60;67.10
25906;DHT22;13713;52.552;13.204;2023-03-20T02:38:46;14.60;67.10
25906;DHT22;13713;52.552;13.204;2023-03-20T02:41:33;14.60;67.10
25906;DHT22;13713;52.552;13.204;2023-03-20T02:57:51;14.60;67.20
25906;DHT22;13713;52.552;13.204;2023-03-20T03:00:39;14.60;67.10
25906;DHT22;13713;52.552;13.204;2023-03-20T03:03:14;14.60;67.20
25906;DHT22;13713;52.552;13.204;2023-03-20T03:08:19;14.70;67.20
25906;DHT22;13713;52.552;13.204;2023-03-20T03:11:06;14.60;67.20
25906;DHT22;13713;52.552;13.204;2023-03-20T03:13:41;14.60;67.20
25906;DHT22;13713;52.552;13.204;2023-03-20T03:16:13;14.60;67.20
25906;DHT22;13713;52.552;13.204;2023-03-20T03:18:41;14.60;67.20
25906;DHT22;13713;52.552;13.204;2023-03-20T03:21:10;14.60;67.20
25906;DHT22;13713;52.552;13.204;2023-03-20T03:23:44;14.60;67.20
25906;DHT22;13713;52.552;13.204;2023-03-20T03:26:18;14.60;67.90
25906;DHT22;13713;52.552;13.204;2023-03-20T03:28:49;14.60;67.20
25906;DHT22;13713;52.552;13.204;2023-03-20T03:31:17;14.70;67.30
25906;DHT22;13713;52.552;13.204;2023-03-20T03:33:47;14.60;67.20
25906;DHT22;13713;52.552;13.204;2023-03-20T03:38:59;14.60;67.20
25906;DHT22;13713;52.552;13.204;2023-03-20T03:41:31;14.60;67.20
25906;DHT22;13713;52.552;13.204;2023-03-20T03:44:16;14.60;67.20
25906;DHT22;13713;52.552;13.204;2023-03-20T03:46:47;14.60;67.20
25906;DHT22;13713;52.552;13.204;2023-03-20T03:49:22;14.60;67.30
25906;DHT22;13713;52.552;13.204;2023-03-20T03:51:53;14.70;67.30
25906;DHT22;13713;52.552;13.204;2023-03-20T03:54:24;14.60;67.20
25906;DHT22;13713;52.552;13.204;2023-03-20T03:57:17;14.60;67.20
25906;DHT22;13713;52.552;13.204;2023-03-20T03:59:48;14.60;67.30
25906;DHT22;13713;52.552;13.204;2023-03-20T04:02:16;14.60;67.30
25906;DHT22;13713;52.552;13.204;2023-03-20T04:04:46;14.60;67.20
25906;DHT22;13713;52.552;13.204;2023-03-20T04:07:15;14.60;67.30
25906;DHT22;13713;52.552;13.204;2023-03-20T04:09:41;14.70;67.30
25906;DHT22;13713;52.552;13.204;2023-03-20T04:14:52;14.60;67.30
25906;DHT22;13713;52.552;13.204;2023-03-20T04:17:21;14.60;67.30
25906;DHT22;13713;52.552;13.204;2023-03-20T04:19:46;14.60;67.30
25906;DHT22;13713;52.552;13.204;2023-03-20T04:22:12;14.60;67.30
25906;DHT22;13713;52.552;13.204;2023-03-20T04:24:38;14.70;67.40
25906;DHT22;13713;52.552;13.204;2023-03-20T04:27:03;14.70;67.30
25906;DHT22;13713;52.552;13.204;2023-03-20T04:29:29;14.70;67.30
25906;DHT22;13713;52.552;13.204;2023-03-20T04:32:29;14.60;67.20
25906;DHT22;13713;52.552;13.204;2023-03-20T04:35:07;14.60;67.20
25906;DHT22;13713;52.552;13.204;2023-03-20T04:37:55;14.70;67.30
25906;DHT22;13713;52.552;13.204;2023-03-20T04:40:21;14.80;67.40
25906;DHT22;13713;52.552;13.204;2023-03-20T04:42:47;14.70;67.30
25906;DHT22;13713;52.552;13.204;2023-03-20T04:45:13;14.70;67.40
25906;DHT22;13713;52.552;13.204;2023-03-20T04:47:38;14.70;67.40
25906;DHT22;13713;52.552;13.204;2023-03-20T04:50:05;14.80;67.40
25906;DHT22;13713;52.552;13.204;2023-03-20T04:52:31;14.80;67.50
25906;DHT22;13713;52.552;13.204;2023-03-20T04:54:57;14.80;67.50
25906;DHT22;13713;52.552;13.204;2023-03-20T04:57:23;14.80;67.50
25906;DHT22;13713;52.552;13.204;2023-03-20T04:59:50;14.80;68.30
25906;DHT22;13713;52.552;13.204;2023-03-20T05:02:16;14.80;67.50
25906;DHT22;13713;52.552;13.204;2023-03-20T05:04:42;14.80;67.50
25906;DHT22;13713;52.552;13.204;2023-03-20T05:07:09;14.80;67.50
25906;DHT22;13713;52.552;13.204;2023-03-20T05:10:07;14.80;68.30
25906;DHT22;13713;52.552;13.204;2023-03-20T05:12:43;14.90;67.60
25906;DHT22;13713;52.552;13.204;2023-03-20T05:15:25;14.90;67.60
25906;DHT22;13713;52.552;13.204;2023-03-20T05:18:16;14.90;67.60
25906;DHT22;13713;52.552;13.204;2023-03-20T05:21:01;14.90;67.60
25906;DHT22;13713;52.552;13.204;2023-03-20T05:23:47;14.90;67.60
25906;DHT22;13713;52.552;13.204;2023-03-20T05:26:19;14.90;67.50
25906;DHT22;13713;52.552;13.204;2023-03-20T05:29:11;14.90;67.50
25906;DHT22;13713;52.552;13.204;2023-03-20T05:32:03;14.90;67.50
25906;DHT22;13713;52.552;13.204;2023-03-20T05:34:38;15.00;67.60
25906;DHT22;13713;52.552;13.204;2023-03-20T05:37:17;14.90;67.50
25906;DHT22;13713;52.552;13.204;2023-03-20T05:40:04;15.00;67.60
25906;DHT22;13713;52.552;13.204;2023-03-20T05:42:56;15.00;67.60
25906;DHT22;13713;52.552;13.204;2023-03-20T05:45:35;15.00;67.50
25906;DHT22;13713;52.552;13.204;2023-03-20T05:48:04;15.00;67.60
25906;DHT22;13713;52.552;13.204;2023-03-20T05:51:05;15.00;67.50
25906;DHT22;13713;52.552;13.204;2023-03-20T05:53:56;15.00;67.60
25906;DHT22;13713;52.552;13.204;2023-03-20T05:56:43;15.00;67.50
25906;DHT22;13713;52.552;13.204;2023-03-20T05:59:18;15.00;67.50
25906;DHT22;13713;52.552;13.204;2023-03-20T06:02:03;15.10;67.60
25906;DHT22;13713;52.552;13.204;2023-03-20T06:04:32;15.10;67.50
25906;DHT22;13713;52.552;13.204;2023-03-20T06:07:14;15.10;67.50
25906;DHT22;13713;52.552;13.204;2023-03-20T06:09:44;15.10;67.50
25906;DHT22;13713;52.552;13.204;2023-03-20T06:12:12;15.10;67.50
25906;DHT22;13713;52.552;13.204;2023-03-20T06:14:38;15.10;67.50
25906;DHT22;13713;52.552;13.204;2023-03-20T06:17:06;15.10;67.50
25906;DHT22;13713;52.552;13.204;2023-03-20T06:19:33;15.10;67.50
25906;DHT22;13713;52.552;13.204;2023-03-20T06:21:59;15.10;67.40
25906;DHT22;13713;52.552;13.204;2023-03-20T06:24:24;15.20;67.50
25906;DHT22;13713;52.552;13.204;2023-03-20T06:26:52;15.20;67.50
25906;DHT22;13713;52.552;13.204;2023-03-20T06:29:18;15.20;67.50
25906;DHT22;13713;52.552;13.204;2023-03-20T06:31:44;15.20;67.50
25906;DHT22;13713;52.552;13.204;2023-03-20T06:34:20;15.30;67.90
25906;DHT22;13713;52.552;13.204;2023-03-20T06:36:47;15.20;68.50
25906;DHT22;13713;52.552;13.204;2023-03-20T06:39:18;15.20;68.30
25906;DHT22;13713;52.552;13.204;2023-03-20T06:41:44;15.20;68.80
25906;DHT22;13713;52.552;13.204;2023-03-20T06:44:10;15.20;68.10
25906;DHT22;13713;52.552;13.204;2023-03-20T06:46:59;15.30;68.10
25906;DHT22;13713;52.552;13.204;2023-03-20T06:49:25;15.30;67.90
25906;DHT22;13713;52.552;13.204;2023-03-20T06:51:52;15.30;67.80
25906;DHT22;13713;52.552;13.204;2023-03-20T06:54:23;15.30;67.70
25906;DHT22;13713;52.552;13.204;2023-03-20T06:56:50;15.30;67.70
25906;DHT22;13713;52.552;13.204;2023-03-20T06:59:15;15.40;67.70
25906;DHT22;13713;52.552;13.204;2023-03-20T07:01:43;15.40;67.70
25906;DHT22;13713;52.552;13.204;2023-03-20T07:04:09;15.40;67.70
25906;DHT22;13713;52.552;13.204;2023-03-20T07:06:43;15.40;67.70
25906;DHT22;13713;52.552;13.204;2023-03-20T07:09:09;15.50;67.70
25906;DHT22;13713;52.552;13.204;2023-03-20T07:11:35;15.40;67.50
25906;DHT22;13713;52.552;13.204;2023-03-20T07:14:01;15.50;67.60
25906;DHT22;13713;52.552;13.204;2023-03-20T07:16:44;15.50;67.50
25906;DHT22;13713;52.552;13.204;2023-03-20T07:19:09;15.60;67.40
25906;DHT22;13713;52.552;13.204;2023-03-20T07:21:39;15.60;67.10
25906;DHT22;13713;52.552;13.204;2023-03-20T07:24:05;15.60;66.80
25906;DHT22;13713;52.552;13.204;2023-03-20T07:26:32;15.60;66.80
25906;DHT22;13713;52.552;13.204;2023-03-20T07:28:57;15.60;66.70
25906;DHT22;13713;52.552;13.204;2023-03-20T07:31:26;15.70;66.80
25906;DHT22;13713;52.552;13.204;2023-03-20T07:34:07;15.70;66.80
25906;DHT22;13713;52.552;13.204;2023-03-20T07:36:33;15.70;66.90
25906;DHT22;13713;52.552;13.204;2023-03-20T07:38:59;15.70;66.80
25906;DHT22;13713;52.552;13.204;2023-03-20T07:41:27;15.80;66.80
25906;DHT22;13713;52.552;13.204;2023-03-20T07:44:01;15.80;66.90
25906;DHT22;13713;52.552;13.204;2023-03-20T07:46:47;15.80;66.90
25906;DHT22;13713;52.552;13.204;2023-03-20T07:49:15;15.80;66.90
25906;DHT22;13713;52.552;13.204;2023-03-20T07:51:45;15.90;66.90
25906;DHT22;13713;52.552;13.204;2023-03-20T07:54:11;15.90;66.80
25906;DHT22;13713;52.552;13.204;2023-03-20T07:56:36;15.90;67.60
25906;DHT22;13713;52.552;13.204;2023-03-20T07:59:02;15.90;66.90
25906;DHT22;13713;52.552;13.204;2023-03-20T08:01:32;15.90;66.90
25906;DHT22;13713;52.552;13.204;2023-03-20T08:04:03;15.90;66.90
25906;DHT22;13713;52.552;13.204;2023-03-20T08:06:29;16.00;67.00
25906;DHT22;13713;52.552;13.204;2023-03-20T08:08:55;16.00;67.00
25906;DHT22;13713;52.552;13.204;2023-03-20T08:11:20;16.00;67.00
25906;DHT22;13713;52.552;13.204;2023-03-20T08:13:46;16.00;67.00
25906;DHT22;13713;52.552;13.204;2023-03-20T08:16:12;16.00;67.30
25906;DHT22;13713;52.552;13.204;2023-03-20T08:18:37;16.10;67.20
25906;DHT22;13713;52.552;13.204;2023-03-20T08:21:03;16.10;67.20
25906;DHT22;13713;52.552;13.204;2023-03-20T08:23:29;16.10;67.20
25906;DHT22;13713;52.552;13.204;2023-03-20T08:25:55;16.00;67.20
25906;DHT22;13713;52.552;13.204;2023-03-20T08:28:21;16.10;67.30
25906;DHT22;13713;52.552;13.204;2023-03-20T08:30:47;16.20;67.50
25906;DHT22;13713;52.552;13.204;2023-03-20T08:33:14;16.30;67.50
25906;DHT22;13713;52.552;13.204;2023-03-20T08:35:41;16.20;67.40
25906;DHT22;13713;52.552;13.204;2023-03-20T08:38:12;16.30;67.40
25906;DHT22;13713;52.552;13.204;2023-03-20T08:40:41;16.30;67.40
25906;DHT22;13713;52.552;13.204;2023-03-20T08:43:07;16.30;67.30
25906;DHT22;13713;52.552;13.204;2023-03-20T08:45:33;16.30;67.40
25906;DHT22;13713;52.552;13.204;2023-03-20T08:47:59;16.30;67.30
25906;DHT22;13713;52.552;13.204;2023-03-20T08:50:24;16.40;67.40
25906;DHT22;13713;52.552;13.204;2023-03-20T08:52:50;16.50;67.50
25906;DHT22;13713;52.552;13.204;2023-03-20T08:55:16;16.40;67.30
25906;DHT22;13713;52.552;13.204;2023-03-20T08:57:42;16.40;67.30
25906;DHT22;13713;52.552;13.204;2023-03-20T09:00:11;16.40;67.30
25906;DHT22;13713;52.552;13.204;2023-03-20T09:02:38;16.40;67.40
25906;DHT22;13713;52.552;13.204;2023-03-20T09:05:04;16.40;67.30
25906;DHT22;13713;52.552;13.204;2023-03-20T09:07:30;16.50;67.40
25906;DHT22;13713;52.552;13.204;2023-03-20T09:09:56;16.60;67.40
25906;DHT22;13713;52.552;13.204;2023-03-20T09:12:21;16.60;67.50
25906;DHT22;13713;52.552;13.204;2023-03-20T09:14:47;16.60;67.60
25906;DHT22;13713;52.552;13.204;2023-03-20T09:17:13;16.60;67.50
25906;DHT22;13713;52.552;13.204;2023-03-20T09:19:38;16.60;67.40
25906;DHT22;13713;52.552;13.204;2023-03-20T09:22:07;16.60;67.50
25906;DHT22;13713;52.552;13.204;2023-03-20T09:24:33;16.60;67.50
25906;DHT22;13713;52.552;13.204;2023-03-20T09:26:59;16.70;67.50
25906;DHT22;13713;52.552;13.204;2023-03-20T09:29:26;16.70;67.60
25906;DHT22;13713;52.552;13.204;2023-03-20T09:31:52;16.70;67.50
25906;DHT22;13713;52.552;13.204;2023-03-20T09:34:18;16.80;67.40
25906;DHT22;13713;52.552;13.204;2023-03-20T09:36:43;16.80;67.40
25906;DHT22;13713;52.552;13.204;2023-03-20T09:39:09;16.80;67.50
25906;DHT22;13713;52.552;13.204;2023-03-20T09:41:35;16.90;67.60
25906;DHT22;13713;52.552;13.204;2023-03-20T09:47:10;16.90;67.50
25906;DHT22;13713;52.552;13.204;2023-03-20T09:49:56;16.90;67.50
25906;DHT22;13713;52.552;13.204;2023-03-20T09:55:10;16.90;67.50
25906;DHT22;13713;52.552;13.204;2023-03-20T09:57:40;17.00;67.60
25906;DHT22;13713;52.552;13.204;2023-03-20T10:03:08;17.00;67.50
25906;DHT22;13713;52.552;13.204;2023-03-20T10:05:57;17.00;67.50
25906;DHT22;13713;52.552;13.204;2023-03-20T10:08:29;17.00;67.50
25906;DHT22;13713;52.552;13.204;2023-03-20T10:14:15;17.10;67.80
25906;DHT22;13713;52.552;13.204;2023-03-20T10:16:48;17.10;67.70
25906;DHT22;13713;52.552;13.204;2023-03-20T10:19:44;17.10;67.70
25906;DHT22;13713;52.552;13.204;2023-03-20T10:22:19;17.10;67.70
25906;DHT22;13713;52.552;13.204;2023-03-20T10:27:28;17.20;67.70
25906;DHT22;13713;52.552;13.204;2023-03-20T10:38:16;17.20;67.60
25906;DHT22;13713;52.552;13.204;2023-03-20T10:40:43;17.30;67.60
25906;DHT22;13713;52.552;13.204;2023-03-20T10:43:27;17.30;67.70
25906;DHT22;13713;52.552;13.204;2023-03-20T10:48:38;17.30;67.60
25906;DHT22;13713;52.552;13.204;2023-03-20T10:51:12;17.30;67.60
25906;DHT22;13713;52.552;13.204;2023-03-20T10:53:49;17.40;67.80
25906;DHT22;13713;52.552;13.204;2023-03-20T10:56:30;17.30;67.90
25906;DHT22;13713;52.552;13.204;2023-03-20T10:59:02;17.30;67.80
25906;DHT22;13713;52.552;13.204;2023-03-20T11:01:28;17.40;67.80
25906;DHT22;13713;52.552;13.204;2023-03-20T11:03:54;17.40;67.80
25906;DHT22;13713;52.552;13.204;2023-03-20T11:06:24;17.40;67.80
25906;DHT22;13713;52.552;13.204;2023-03-20T11:08:52;17.40;67.80
25906;DHT22;13713;52.552;13.204;2023-03-20T11:11:23;17.50;67.70
25906;DHT22;13713;52.552;13.204;2023-03-20T11:13:50;17.50;67.70
25906;DHT22;13713;52.552;13.204;2023-03-20T11:16:20;17.50;67.60
25906;DHT22;13713;52.552;13.204;2023-03-20T11:18:48;17.50;67.70
25906;DHT22;13713;52.552;13.204;2023-03-20T11:21:20;17.60;67.80
25906;DHT22;13713;52.552;13.204;2023-03-20T11:23:46;17.60;67.70
25906;DHT22;13713;52.552;13.204;2023-03-20T11:26:15;17.60;68.00
25906;DHT22;13713;52.552;13.204;2023-03-20T11:28:47;17.60;67.90
25906;DHT22;13713;52.552;13.204;2023-03-20T11:31:18;17.70;68.00
25906;DHT22;13713;52.552;13.204;2023-03-20T11:33:59;17.70;67.90
25906;DHT22;13713;52.552;13.204;2023-03-20T11:36:33;17.70;68.00
25906;DHT22;13713;52.552;13.204;2023-03-20T11:39:13;17.80;68.20
25906;DHT22;13713;52.552;13.204;2023-03-20T11:41:46;17.80;68.00
25906;DHT22;13713;52.552;13.204;2023-03-20T11:44:27;17.80;67.80
25906;DHT22;13713;52.552;13.204;2023-03-20T11:47:04;17.90;67.90
25906;DHT22;13713;52.552;13.204;2023-03-20T11:49:32;17.90;67.90
25906;DHT22;13713;52.552;13.204;2023-03-20T11:52:15;17.90;67.90
25906;DHT22;13713;52.552;13.204;2023-03-20T11:54:45;18.00;68.10
25906;DHT22;13713;52.552;13.204;2023-03-20T11:57:31;18.00;68.00
25906;DHT22;13713;52.552;13.204;2023-03-20T12:00:25;18.10;68.00
25906;DHT22;13713;52.552;13.204;2023-03-20T12:02:50;18.10;68.00
25906;DHT22;13713;52.552;13.204;2023-03-20T12:05:32;18.20;68.20
25906;DHT22;13713;52.552;13.204;2023-03-20T12:08:23;18.20;68.10
25906;DHT22;13713;52.552;13.204;2023-03-20T12:10:56;18.20;67.90
25906;DHT22;13713;52.552;13.204;2023-03-20T12:13:32;18.30;68.20
25906;DHT22;13713;52.552;13.204;2023-03-20T12:16:03;18.30;68.00
25906;DHT22;13713;52.552;13.204;2023-03-20T12:18:56;18.40;68.00
25906;DHT22;13713;52.552;13.204;2023-03-20T12:21:45;18.40;67.90
25906;DHT22;13713;52.552;13.204;2023-03-20T12:24:21;18.50;67.90
25906;DHT22;13713;52.552;13.204;2023-03-20T12:27:27;18.50;67.60
25906;DHT22;13713;52.552;13.204;2023-03-20T12:30:05;18.60;67.50
25906;DHT22;13713;52.552;13.204;2023-03-20T12:32:59;18.70;67.70
25906;DHT22;13713;52.552;13.204;2023-03-20T12:35:36;18.70;67.60
25906;DHT22;13713;52.552;13.204;2023-03-20T12:38:17;18.80;67.60
25906;DHT22;13713;52.552;13.204;2023-03-20T12:40:44;18.80;67.20
25906;DHT22;13713;52.552;13.204;2023-03-20T12:43:24;18.90;67.30
25906;DHT22;13713;52.552;13.204;2023-03-20T12:48:46;18.90;67.00
25906;DHT22;13713;52.552;13.204;2023-03-20T12:57:27;19.00;66.90
25906;DHT22;13713;52.552;13.204;2023-03-20T13:05:55;19.10;66.50
25906;DHT22;13713;52.552;13.204;2023-03-20T13:08:47;19.10;66.40
25906;DHT22;13713;52.552;13.204;2023-03-20T13:14:31;19.20;66.20
25906;DHT22;13713;52.552;13.204;2023-03-20T13:17:01;19.20;66.10
25906;DHT22;13713;52.552;13.204;2023-03-20T13:19:58;19.20;66.10
25906;DHT22;13713;52.552;13.204;2023-03-20T13:28:06;19.30;65.80
25906;DHT22;13713;52.552;13.204;2023-03-20T13:30:50;19.30;65.70
25906;DHT22;13713;52.552;13.204;2023-03-20T13:33:35;19.30;65.80
25906;DHT22;13713;52.552;13.204;2023-03-20T13:36:30;19.40;65.70
25906;DHT22;13713;52.552;13.204;2023-03-20T13:39:02;19.40;65.70
25906;DHT22;13713;52.552;13.204;2023-03-20T13:41:30;19.40;65.70
25906;DHT22;13713;52.552;13.204;2023-03-20T13:44:01;19.40;65.40
25906;DHT22;13713;52.552;13.204;2023-03-20T13:46:36;19.50;65.50
25906;DHT22;13713;52.552;13.204;2023-03-20T13:49:19;19.50;65.20
25906;DHT22;13713;52.552;13.204;2023-03-20T13:52:37;19.50;65.20
25906;DHT22;13713;52.552;13.204;2023-03-20T14:05:41;19.60;65.40
25906;DHT22;13713;52.552;13.204;2023-03-20T14:08:33;19.70;65.80
25906;DHT22;13713;52.552;13.204;2023-03-20T14:11:14;19.70;65.50
25906;DHT22;13713;52.552;13.204;2023-03-20T14:13:45;19.70;65.90
25906;DHT22;13713;52.552;13.204;2023-03-20T14:16:14;19.70;66.00
25906;DHT22;13713;52.552;13.204;2023-03-20T14:18:43;19.70;65.90
25906;DHT22;13713;52.552;13.204;2023-03-20T14:21:16;19.70;66.10
25906;DHT22;13713;52.552;13.204;2023-03-20T14:24:01;19.70;66.10
25906;DHT22;13713;52.552;13.204;2023-03-20T14:26:29;19.70;66.20
25906;DHT22;13713;52.552;13.204;2023-03-20T14:28:59;19.80;66.10
25906;DHT22;13713;52.552;13.204;2023-03-20T14:31:31;19.80;66.20
25906;DHT22;13713;52.552;13.204;2023-03-20T14:36:57;19.80;66.40
25906;DHT22;13713;52.552;13.204;2023-03-20T14:48:06;19.90;67.00
25906;DHT22;13713;52.552;13.204;2023-03-20T14:52:59;20.00;67.00
25906;DHT22;13713;52.552;13.204;2023-03-20T14:56:19;20.00;67.10
25906;DHT22;13713;52.552;13.204;2023-03-20T15:01:07;20.00;67.30
25906;DHT22;13713;52.552;13.204;2023-03-20T15:03:36;20.00;67.00
25906;DHT22;13713;52.552;13.204;2023-03-20T15:06:05;20.00;67.10
25906;DHT22;13713;52.552;13.204;2023-03-20T15:08:43;20.00;67.30
25906;DHT22;13713;52.552;13.204;2023-03-20T15:11:12;20.00;67.20
25906;DHT22;13713;52.552;13.204;2023-03-20T15:13:39;20.00;67.00
25906;DHT22;13713;52.552;13.204;2023-03-20T15:16:08;20.00;66.80
25906;DHT22;13713;52.552;13.204;2023-03-20T15:18:46;20.00;66.70
25906;DHT22;13713;52.552;13.204;2023-03-20T15:21:17;19.90;66.60
25906;DHT22;13713;52.552;13.204;2023-03-20T15:23:45;19.90;66.80
25906;DHT22;13713;52.552;13.204;2023-03-20T15:26:15;19.90;67.00
25906;DHT22;13713;52.552;13.204;2023-03-20T15:28:42;19.90;67.00
25906;DHT22;13713;52.552;13.204;2023-03-20T15:31:25;19.80;67.00
25906;DHT22;13713;52.552;13.204;2023-03-20T15:33:52;19.80;67.00
25906;DHT22;13713;52.552;13.204;2023-03-20T15:36:22;19.70;67.20
25906;DHT22;13713;52.552;13.204;2023-03-20T15:38:50;19.80;67.00
25906;DHT22;13713;52.552;13.204;2023-03-20T15:41:27;19.70;67.20
25906;DHT22;13713;52.552;13.204;2023-03-20T15:43:53;19.70;67.30
25906;DHT22;13713;52.552;13.204;2023-03-20T15:46:25;19.60;67.30
25906;DHT22;13713;52.552;13.204;2023-03-20T15:48:51;19.60;67.30
25906;DHT22;13713;52.552;13.204;2023-03-20T15:51:18;19.60;67.40
25906;DHT22;13713;52.552;13.204;2023-03-20T15:53:46;19.50;67.40
25906;DHT22;13713;52.552;13.204;2023-03-20T15:56:14;19.50;67.50
25906;DHT22;13713;52.552;13.204;2023-03-20T15:58:42;19.50;67.60
25906;DHT22;13713;52.552;13.204;2023-03-20T16:01:18;19.50;67.60
25906;DHT22;13713;52.552;13.204;2023-03-20T16:03:44;19.40;67.40
25906;DHT22;13713;52.552;13.204;2023-03-20T16:06:11;19.40;67.60
25906;DHT22;13713;52.552;13.204;2023-03-20T16:08:39;19.40;67.70
25906;DHT22;13713;52.552;13.204;2023-03-20T16:11:16;19.30;67.80
25906;DHT22;13713;52.552;13.204;2023-03-20T16:13:44;19.30;67.80
25906;DHT22;13713;52.552;13.204;2023-03-20T16:16:22;19.30;67.90
25906;DHT22;13713;52.552;13.204;2023-03-20T16:18:49;19.30;67.90
25906;DHT22;13713;52.552;13.204;2023-03-20T16:21:25;19.30;68.10
25906;DHT22;13713;52.552;13.204;2023-03-20T16:23:54;19.20;67.90
25906;DHT22;13713;52.552;13.204;2023-03-20T16:26:22;19.20;68.10
25906;DHT22;13713;52.552;13.204;2023-03-20T16:28:52;19.20;68.20
25906;DHT22;13713;52.552;13.204;2023-03-20T16:31:25;19.20;68.50
25906;DHT22;13713;52.552;13.204;2023-03-20T16:33:52;19.10;68.40
25906;DHT22;13713;52.552;13.204;2023-03-20T16:36:21;19.10;68.60
25906;DHT22;13713;52.552;13.204;2023-03-20T16:38:57;19.10;68.80
25906;DHT22;13713;52.552;13.204;2023-03-20T16:41:32;19.10;68.80
25906;DHT22;13713;52.552;13.204;2023-03-20T16:43:58;18.90;68.80
25906;DHT22;13713;52.552;13.204;2023-03-20T16:46:26;19.00;68.90
25906;DHT22;13713;52.552;13.204;2023-03-20T16:48:56;19.00;69.00
25906;DHT22;13713;52.552;13.204;2023-03-20T16:51:33;19.00;69.10
25906;DHT22;13713;52.552;13.204;2023-03-20T16:53:59;18.90;68.90
25906;DHT22;13713;52.552;13.204;2023-03-20T16:56:35;18.90;69.00
25906;DHT22;13713;52.552;13.204;2023-03-20T16:59:09;18.90;68.80
25906;DHT22;13713;52.552;13.204;2023-03-20T17:01:40;18.90;69.00
25906;DHT22;13713;52.552;13.204;2023-03-20T17:06:51;18.70;68.90
25906;DHT22;13713;52.552;13.204;2023-03-20T17:11:55;18.70;69.30
25906;DHT22;13713;52.552;13.204;2023-03-20T17:14:21;18.60;69.30
25906;DHT22;13713;52.552;13.204;2023-03-20T17:16:47;18.60;69.40
25906;DHT22;13713;52.552;13.204;2023-03-20T17:19:17;18.70;69.70
25906;DHT22;13713;52.552;13.204;2023-03-20T17:21:43;18.50;69.70
25906;DHT22;13713;52.552;13.204;2023-03-20T17:24:11;18.60;69.90
25906;DHT22;13713;52.552;13.204;2023-03-20T17:26:38;18.50;70.00
25906;DHT22;13713;52.552;13.204;2023-03-20T17:29:05;18.50;70.00
25906;DHT22;13713;52.552;13.204;2023-03-20T17:31:30;18.50;70.20
25906;DHT22;13713;52.552;13.204;2023-03-20T17:33:56;18.50;70.30
25906;DHT22;13713;52.552;13.204;2023-03-20T17:36:23;18.50;70.20
25906;DHT22;13713;52.552;13.204;2023-03-20T17:38:51;18.40;70.30
25906;DHT22;13713;52.552;13.204;2023-03-20T17:41:18;18.40;70.20
25906;DHT22;13713;52.552;13.204;2023-03-20T17:43:44;18.40;70.20
25906;DHT22;13713;52.552;13.204;2023-03-20T17:48:49;18.40;70.40
25906;DHT22;13713;52.552;13.204;2023-03-20T17:51:15;18.30;70.40